sensor_id;sensor_type;location;lat;lon;timestamp;P1;durP1;ratioP1;P2;durP2;ratioP2
68987;SDS011;56038;46.080;11.116;2023-05-07T00:01:50;2.75;;;2.20;;
68987;SDS011;56038;46.080;11.116;2023-05-07T00:06:53;2.80;;;2.60;;
68987;SDS011;56038;46.080;11.116;2023-05-07T00:11:55;2.58;;;2.38;;
68987;SDS011;56038;46.080;11.116;2023-05-07T00:16:57;2.67;;;2.47;;
68987;SDS011;56038;46.080;11.116;2023-05-07T00:22:00;2.88;;;2.67;;
68987;SDS011;56038;46.080;11.116;2023-05-07T00:27:02;2.45;;;2.25;;
68987;SDS011;56038;46.080;11.116;2023-05-07T00:32:04;2.67;;;2.47;;
68987;SDS011;56038;46.080;11.116;2023-05-07T00:37:07;2.80;;;2.60;;
68987;SDS011;56038;46.080;11.116;2023-05-07T00:42:09;2.50;;;2.30;;
68987;SDS011;56038;46.080;11.116;2023-05-07T00:47:10;3.03;;;2.83;;
68987;SDS011;56038;46.080;11.116;2023-05-07T00:52:14;2.97;;;2.70;;
68987;SDS011;56038;46.080;11.116;2023-05-07T01:02:20;2.78;;;2.55;;
68987;SDS011;56038;46.080;11.116;2023-05-07T01:07:23;3.92;;;3.53;;
68987;SDS011;56038;46.080;11.116;2023-05-07T01:12:25;4.22;;;2.85;;
68987;SDS011;56038;46.080;11.116;2023-05-07T01:17:27;4.45;;;3.38;;
68987;SDS011;56038;46.080;11.116;2023-05-07T01:22:31;4.03;;;3.63;;
68987;SDS011;56038;46.080;11.116;2023-05-07T01:27:34;6.13;;;4.55;;
68987;SDS011;56038;46.080;11.116;2023-05-07T01:32:39;3.47;;;3.00;;
68987;SDS011;56038;46.080;11.116;2023-05-07T01:37:45;3.35;;;3.05;;
68987;SDS011;56038;46.080;11.116;2023-05-07T01:42:48;5.00;;;2.97;;
68987;SDS011;56038;46.080;11.116;2023-05-07T01:47:50;4.38;;;2.80;;
68987;SDS011;56038;46.080;11.116;2023-05-07T01:52:54;4.00;;;3.00;;
68987;SDS011;56038;46.080;11.116;2023-05-07T01:57:56;4.72;;;2.78;;
68987;SDS011;56038;46.080;11.116;2023-05-07T02:02:58;2.83;;;2.63;;
68987;SDS011;56038;46.080;11.116;2023-05-07T02:08:01;4.93;;;3.25;;
68987;SDS011;56038;46.080;11.116;2023-05-07T02:13:02;3.63;;;3.33;;
68987;SDS011;56038;46.080;11.116;2023-05-07T02:18:05;2.90;;;2.70;;
68987;SDS011;56038;46.080;11.116;2023-05-07T02:23:09;3.20;;;3.00;;
68987;SDS011;56038;46.080;11.116;2023-05-07T02:28:10;3.90;;;3.15;;
68987;SDS011;56038;46.080;11.116;2023-05-07T02:33:12;4.07;;;3.65;;
68987;SDS011;56038;46.080;11.116;2023-05-07T02:38:15;3.78;;;3.47;;
68987;SDS011;56038;46.080;11.116;2023-05-07T02:43:17;3.60;;;3.30;;
68987;SDS011;56038;46.080;11.116;2023-05-07T02:48:18;3.70;;;3.40;;
68987;SDS011;56038;46.080;11.116;2023-05-07T02:53:21;4.68;;;4.28;;
68987;SDS011;56038;46.080;11.116;2023-05-07T03:03:27;4.40;;;4.00;;
68987;SDS011;56038;46.080;11.116;2023-05-07T03:08:30;4.97;;;3.58;;
68987;SDS011;56038;46.080;11.116;2023-05-07T03:13:32;4.45;;;4.03;;
68987;SDS011;56038;46.080;11.116;2023-05-07T03:18:33;4.32;;;3.92;;
68987;SDS011;56038;46.080;11.116;2023-05-07T03:23:36;4.85;;;4.38;;
68987;SDS011;56038;46.080;11.116;2023-05-07T03:28:38;4.30;;;3.90;;
68987;SDS011;56038;46.080;11.116;2023-05-07T03:33:49;4.50;;;4.07;;
68987;SDS011;56038;46.080;11.116;2023-05-07T03:38:54;4.40;;;4.10;;
68987;SDS011;56038;46.080;11.116;2023-05-07T03:43:55;4.75;;;4.30;;
68987;SDS011;56038;46.080;11.116;2023-05-07T03:48:57;4.88;;;4.47;;
68987;SDS011;56038;46.080;11.116;2023-05-07T03:54:00;4.15;;;3.75;;
68987;SDS011;56038;46.080;11.116;2023-05-07T03:59:02;3.78;;;3.47;;
68987;SDS011;56038;46.080;11.116;2023-05-07T04:04:03;4.60;;;4.10;;
68987;SDS011;56038;46.080;11.116;2023-05-07T04:09:07;3.63;;;3.33;;
68987;SDS011;56038;46.080;11.116;2023-05-07T04:14:08;3.72;;;3.42;;
68987;SDS011;56038;46.080;11.116;2023-05-07T04:19:10;4.07;;;3.78;;
68987;SDS011;56038;46.080;11.116;2023-05-07T04:24:13;3.55;;;3.25;;
68987;SDS011;56038;46.080;11.116;2023-05-07T04:29:15;3.88;;;3.58;;
68987;SDS011;56038;46.080;11.116;2023-05-07T04:34:16;6.25;;;3.47;;
68987;SDS011;56038;46.080;11.116;2023-05-07T04:39:19;4.45;;;4.05;;
68987;SDS011;56038;46.080;11.116;2023-05-07T04:44:21;4.78;;;4.32;;
68987;SDS011;56038;46.080;11.116;2023-05-07T04:49:23;4.22;;;3.90;;
68987;SDS011;56038;46.080;11.116;2023-05-07T04:54:26;4.20;;;3.80;;
68987;SDS011;56038;46.080;11.116;2023-05-07T04:59:27;3.50;;;3.20;;
68987;SDS011;56038;46.080;11.116;2023-05-07T05:04:29;4.03;;;3.67;;
68987;SDS011;56038;46.080;11.116;2023-05-07T05:09:32;3.53;;;3.22;;
68987;SDS011;56038;46.080;11.116;2023-05-07T05:14:34;2.85;;;2.65;;
68987;SDS011;56038;46.080;11.116;2023-05-07T05:19:36;3.13;;;2.85;;
68987;SDS011;56038;46.080;11.116;2023-05-07T05:24:39;2.95;;;2.65;;
68987;SDS011;56038;46.080;11.116;2023-05-07T05:29:40;3.08;;;2.83;;
68987;SDS011;56038;46.080;11.116;2023-05-07T05:34:42;3.28;;;2.22;;
68987;SDS011;56038;46.080;11.116;2023-05-07T05:39:46;2.75;;;2.40;;
68987;SDS011;56038;46.080;11.116;2023-05-07T05:44:47;1.80;;;1.70;;
68987;SDS011;56038;46.080;11.116;2023-05-07T05:49:49;1.85;;;1.70;;
68987;SDS011;56038;46.080;11.116;2023-05-07T05:54:53;3.00;;;1.50;;
68987;SDS011;56038;46.080;11.116;2023-05-07T05:59:55;1.95;;;1.85;;
68987;SDS011;56038;46.080;11.116;2023-05-07T06:04:56;3.42;;;1.90;;
68987;SDS011;56038;46.080;11.116;2023-05-07T06:09:59;2.50;;;1.85;;
68987;SDS011;56038;46.080;11.116;2023-05-07T06:15:01;2.17;;;1.70;;
68987;SDS011;56038;46.080;11.116;2023-05-07T06:20:03;2.00;;;1.90;;
68987;SDS011;56038;46.080;11.116;2023-05-07T06:25:07;2.55;;;2.10;;
68987;SDS011;56038;46.080;11.116;2023-05-07T06:30:10;2.00;;;1.90;;
68987;SDS011;56038;46.080;11.116;2023-05-07T06:35:12;2.33;;;2.00;;
68987;SDS011;56038;46.080;11.116;2023-05-07T06:40:15;2.67;;;2.30;;
68987;SDS011;56038;46.080;11.116;2023-05-07T06:45:17;1.95;;;1.60;;
68987;SDS011;56038;46.080;11.116;2023-05-07T06:50:18;2.83;;;2.00;;
68987;SDS011;56038;46.080;11.116;2023-05-07T06:55:21;2.80;;;1.90;;
68987;SDS011;56038;46.080;11.116;2023-05-07T07:00:23;1.70;;;1.60;;
68987;SDS011;56038;46.080;11.116;2023-05-07T07:05:30;1.33;;;1.23;;
68987;SDS011;56038;46.080;11.116;2023-05-07T07:10:46;2.47;;;1.80;;
68987;SDS011;56038;46.080;11.116;2023-05-07T07:15:48;1.60;;;1.50;;
68987;SDS011;56038;46.080;11.116;2023-05-07T07:20:50;1.50;;;1.40;;
68987;SDS011;56038;46.080;11.116;2023-05-07T07:25:53;1.50;;;1.40;;
68987;SDS011;56038;46.080;11.116;2023-05-07T07:30:54;2.08;;;1.50;;
68987;SDS011;56038;46.080;11.116;2023-05-07T07:35:56;1.42;;;1.33;;
68987;SDS011;56038;46.080;11.116;2023-05-07T07:40:59;3.67;;;1.58;;
68987;SDS011;56038;46.080;11.116;2023-05-07T07:46:01;5.88;;;2.58;;
68987;SDS011;56038;46.080;11.116;2023-05-07T07:51:03;9.40;;;2.92;;
68987;SDS011;56038;46.080;11.116;2023-05-07T07:56:07;2.65;;;1.95;;
68987;SDS011;56038;46.080;11.116;2023-05-07T08:01:08;2.67;;;1.33;;
68987;SDS011;56038;46.080;11.116;2023-05-07T08:06:15;1.35;;;1.25;;
68987;SDS011;56038;46.080;11.116;2023-05-07T08:11:25;4.57;;;1.35;;
68987;SDS011;56038;46.080;11.116;2023-05-07T08:16:27;1.35;;;1.20;;
68987;SDS011;56038;46.080;11.116;2023-05-07T08:21:28;4.63;;;3.50;;
68987;SDS011;56038;46.080;11.116;2023-05-07T08:26:32;1.63;;;1.50;;
68987;SDS011;56038;46.080;11.116;2023-05-07T08:31:34;1.30;;;1.20;;
68987;SDS011;56038;46.080;11.116;2023-05-07T08:36:35;1.75;;;1.63;;
68987;SDS011;56038;46.080;11.116;2023-05-07T08:41:38;1.67;;;1.58;;
68987;SDS011;56038;46.080;11.116;2023-05-07T08:46:41;1.90;;;1.23;;
68987;SDS011;56038;46.080;11.116;2023-05-07T08:51:48;2.03;;;1.30;;
68987;SDS011;56038;46.080;11.116;2023-05-07T08:56:51;1.13;;;1.10;;
68987;SDS011;56038;46.080;11.116;2023-05-07T09:01:53;1.23;;;1.13;;
68987;SDS011;56038;46.080;11.116;2023-05-07T09:06:54;1.60;;;1.20;;
68987;SDS011;56038;46.080;11.116;2023-05-07T09:11:58;1.40;;;1.05;;
68987;SDS011;56038;46.080;11.116;2023-05-07T09:16:59;1.70;;;1.60;;
68987;SDS011;56038;46.080;11.116;2023-05-07T09:22:01;1.38;;;1.23;;
68987;SDS011;56038;46.080;11.116;2023-05-07T09:27:06;1.80;;;1.60;;
68987;SDS011;56038;46.080;11.116;2023-05-07T09:32:10;3.33;;;2.20;;
68987;SDS011;56038;46.080;11.116;2023-05-07T09:37:12;2.45;;;1.50;;
68987;SDS011;56038;46.080;11.116;2023-05-07T09:42:15;1.33;;;1.23;;
68987;SDS011;56038;46.080;11.116;2023-05-07T09:47:18;2.35;;;1.83;;
68987;SDS011;56038;46.080;11.116;2023-05-07T09:52:21;1.60;;;1.50;;
68987;SDS011;56038;46.080;11.116;2023-05-07T09:57:26;1.70;;;1.60;;
68987;SDS011;56038;46.080;11.116;2023-05-07T10:02:30;1.70;;;1.60;;
68987;SDS011;56038;46.080;11.116;2023-05-07T10:07:36;2.17;;;1.70;;
68987;SDS011;56038;46.080;11.116;2023-05-07T10:12:39;2.30;;;2.10;;
68987;SDS011;56038;46.080;11.116;2023-05-07T10:17:41;2.30;;;2.10;;
68987;SDS011;56038;46.080;11.116;2023-05-07T10:22:44;2.38;;;2.17;;
68987;SDS011;56038;46.080;11.116;2023-05-07T10:27:51;2.10;;;1.95;;
68987;SDS011;56038;46.080;11.116;2023-05-07T10:32:55;1.77;;;1.65;;
68987;SDS011;56038;46.080;11.116;2023-05-07T10:38:05;2.55;;;2.35;;
68987;SDS011;56038;46.080;11.116;2023-05-07T10:43:09;2.28;;;2.10;;
68987;SDS011;56038;46.080;11.116;2023-05-07T10:48:11;2.70;;;2.05;;
68987;SDS011;56038;46.080;11.116;2023-05-07T10:53:20;2.72;;;2.08;;
68987;SDS011;56038;46.080;11.116;2023-05-07T10:58:28;1.90;;;1.80;;
68987;SDS011;56038;46.080;11.116;2023-05-07T11:03:29;3.35;;;1.90;;
68987;SDS011;56038;46.080;11.116;2023-05-07T11:08:43;1.70;;;1.60;;
68987;SDS011;56038;46.080;11.116;2023-05-07T11:13:55;1.60;;;1.50;;
68987;SDS011;56038;46.080;11.116;2023-05-07T11:18:57;2.13;;;1.90;;
68987;SDS011;56038;46.080;11.116;2023-05-07T11:23:58;2.00;;;1.90;;
68987;SDS011;56038;46.080;11.116;2023-05-07T11:29:02;2.08;;;1.88;;
68987;SDS011;56038;46.080;11.116;2023-05-07T11:34:04;2.67;;;1.88;;
68987;SDS011;56038;46.080;11.116;2023-05-07T11:39:06;2.10;;;1.90;;
68987;SDS011;56038;46.080;11.116;2023-05-07T11:44:26;1.70;;;1.60;;
68987;SDS011;56038;46.080;11.116;2023-05-07T11:49:43;1.60;;;1.50;;
68987;SDS011;56038;46.080;11.116;2023-05-07T11:59:54;2.50;;;2.30;;
68987;SDS011;56038;46.080;11.116;2023-05-07T12:04:56;3.28;;;3.08;;
68987;SDS011;56038;46.080;11.116;2023-05-07T12:09:57;2.15;;;2.05;;
68987;SDS011;56038;46.080;11.116;2023-05-07T12:15:00;2.35;;;2.15;;
68987;SDS011;56038;46.080;11.116;2023-05-07T12:20:02;2.50;;;2.30;;
68987;SDS011;56038;46.080;11.116;2023-05-07T12:25:05;2.50;;;2.30;;
68987;SDS011;56038;46.080;11.116;2023-05-07T12:30:11;2.55;;;2.22;;
68987;SDS011;56038;46.080;11.116;2023-05-07T12:35:13;2.70;;;2.50;;
68987;SDS011;56038;46.080;11.116;2023-05-07T12:40:15;3.28;;;3.00;;
68987;SDS011;56038;46.080;11.116;2023-05-07T12:45:18;3.45;;;3.15;;
68987;SDS011;56038;46.080;11.116;2023-05-07T12:50:20;2.63;;;2.43;;
68987;SDS011;56038;46.080;11.116;2023-05-07T12:55:22;2.85;;;2.53;;
68987;SDS011;56038;46.080;11.116;2023-05-07T13:00:35;2.90;;;2.70;;
68987;SDS011;56038;46.080;11.116;2023-05-07T13:05:40;3.30;;;2.80;;
68987;SDS011;56038;46.080;11.116;2023-05-07T13:10:47;3.78;;;3.08;;
68987;SDS011;56038;46.080;11.116;2023-05-07T13:15:50;2.70;;;2.50;;
68987;SDS011;56038;46.080;11.116;2023-05-07T13:20:52;2.93;;;2.63;;
68987;SDS011;56038;46.080;11.116;2023-05-07T13:25:53;2.83;;;2.63;;
68987;SDS011;56038;46.080;11.116;2023-05-07T13:30:57;3.15;;;2.85;;
68987;SDS011;56038;46.080;11.116;2023-05-07T13:35:58;2.73;;;2.53;;
68987;SDS011;56038;46.080;11.116;2023-05-07T13:41:00;2.58;;;2.38;;
68987;SDS011;56038;46.080;11.116;2023-05-07T13:46:04;2.72;;;2.30;;
68987;SDS011;56038;46.080;11.116;2023-05-07T13:51:05;2.13;;;2.03;;
68987;SDS011;56038;46.080;11.116;2023-05-07T13:56:07;1.85;;;1.75;;
68987;SDS011;56038;46.080;11.116;2023-05-07T14:01:10;2.30;;;2.10;;
68987;SDS011;56038;46.080;11.116;2023-05-07T14:06:15;2.40;;;2.20;;
68987;SDS011;56038;46.080;11.116;2023-05-07T14:11:27;2.60;;;2.40;;
68987;SDS011;56038;46.080;11.116;2023-05-07T14:16:30;2.63;;;2.42;;
68987;SDS011;56038;46.080;11.116;2023-05-07T14:21:32;2.67;;;2.47;;
68987;SDS011;56038;46.080;11.116;2023-05-07T14:26:34;2.65;;;2.45;;
68987;SDS011;56038;46.080;11.116;2023-05-07T14:31:37;2.85;;;2.58;;
68987;SDS011;56038;46.080;11.116;2023-05-07T14:36:38;2.38;;;2.17;;
68987;SDS011;56038;46.080;11.116;2023-05-07T14:41:40;3.70;;;2.70;;
68987;SDS011;56038;46.080;11.116;2023-05-07T14:46:43;2.75;;;2.55;;
68987;SDS011;56038;46.080;11.116;2023-05-07T14:51:45;3.10;;;2.25;;
68987;SDS011;56038;46.080;11.116;2023-05-07T14:56:47;2.53;;;2.35;;
68987;SDS011;56038;46.080;11.116;2023-05-07T15:01:50;3.30;;;3.00;;
68987;SDS011;56038;46.080;11.116;2023-05-07T15:06:52;3.40;;;3.00;;
68987;SDS011;56038;46.080;11.116;2023-05-07T15:11:56;3.63;;;3.33;;
68987;SDS011;56038;46.080;11.116;2023-05-07T15:16:59;3.00;;;2.70;;
68987;SDS011;56038;46.080;11.116;2023-05-07T15:22:00;3.55;;;3.13;;
68987;SDS011;56038;46.080;11.116;2023-05-07T15:27:02;3.85;;;3.35;;
68987;SDS011;56038;46.080;11.116;2023-05-07T15:32:05;3.30;;;3.10;;
68987;SDS011;56038;46.080;11.116;2023-05-07T15:37:07;4.53;;;3.63;;
68987;SDS011;56038;46.080;11.116;2023-05-07T15:42:09;3.47;;;3.13;;
68987;SDS011;56038;46.080;11.116;2023-05-07T15:47:12;3.50;;;3.30;;
68987;SDS011;56038;46.080;11.116;2023-05-07T15:52:14;3.90;;;2.90;;
68987;SDS011;56038;46.080;11.116;2023-05-07T15:57:16;3.35;;;3.10;;
68987;SDS011;56038;46.080;11.116;2023-05-07T16:02:19;3.47;;;3.17;;
68987;SDS011;56038;46.080;11.116;2023-05-07T16:07:21;3.20;;;3.00;;
68987;SDS011;56038;46.080;11.116;2023-05-07T16:12:23;3.40;;;3.10;;
68987;SDS011;56038;46.080;11.116;2023-05-07T16:17:26;3.88;;;3.58;;
68987;SDS011;56038;46.080;11.116;2023-05-07T16:22:28;4.15;;;3.85;;
68987;SDS011;56038;46.080;11.116;2023-05-07T16:27:30;3.83;;;3.53;;
68987;SDS011;56038;46.080;11.116;2023-05-07T16:32:33;6.25;;;4.03;;
68987;SDS011;56038;46.080;11.116;2023-05-07T16:37:35;5.82;;;3.78;;
68987;SDS011;56038;46.080;11.116;2023-05-07T16:42:37;5.85;;;3.90;;
68987;SDS011;56038;46.080;11.116;2023-05-07T16:47:40;4.30;;;3.95;;
68987;SDS011;56038;46.080;11.116;2023-05-07T16:52:42;4.53;;;4.18;;
68987;SDS011;56038;46.080;11.116;2023-05-07T16:57:43;4.05;;;3.67;;
68987;SDS011;56038;46.080;11.116;2023-05-07T17:02:46;3.78;;;3.47;;
68987;SDS011;56038;46.080;11.116;2023-05-07T17:07:48;3.47;;;3.17;;
68987;SDS011;56038;46.080;11.116;2023-05-07T17:12:50;4.20;;;3.20;;
68987;SDS011;56038;46.080;11.116;2023-05-07T17:17:53;3.60;;;3.30;;
68987;SDS011;56038;46.080;11.116;2023-05-07T17:22:55;4.22;;;3.42;;
68987;SDS011;56038;46.080;11.116;2023-05-07T17:27:56;4.15;;;3.63;;
68987;SDS011;56038;46.080;11.116;2023-05-07T17:32:59;3.80;;;3.50;;
68987;SDS011;56038;46.080;11.116;2023-05-07T17:38:01;3.75;;;3.45;;
68987;SDS011;56038;46.080;11.116;2023-05-07T17:43:03;3.65;;;3.35;;
68987;SDS011;56038;46.080;11.116;2023-05-07T17:48:06;3.58;;;3.28;;
68987;SDS011;56038;46.080;11.116;2023-05-07T17:53:08;3.95;;;2.58;;
68987;SDS011;56038;46.080;11.116;2023-05-07T17:58:10;2.97;;;2.78;;
68987;SDS011;56038;46.080;11.116;2023-05-07T18:03:13;2.72;;;2.42;;
68987;SDS011;56038;46.080;11.116;2023-05-07T18:08:15;2.70;;;2.55;;
68987;SDS011;56038;46.080;11.116;2023-05-07T18:13:17;2.67;;;2.15;;
68987;SDS011;56038;46.080;11.116;2023-05-07T18:18:22;2.30;;;2.15;;
68987;SDS011;56038;46.080;11.116;2023-05-07T18:23:25;2.97;;;2.72;;
68987;SDS011;56038;46.080;11.116;2023-05-07T18:28:26;2.75;;;2.55;;
68987;SDS011;56038;46.080;11.116;2023-05-07T18:33:30;2.53;;;2.33;;
68987;SDS011;56038;46.080;11.116;2023-05-07T18:38:32;2.50;;;2.30;;
68987;SDS011;56038;46.080;11.116;2023-05-07T18:43:33;10.77;;;4.55;;
68987;SDS011;56038;46.080;11.116;2023-05-07T18:48:37;3.10;;;2.90;;
68987;SDS011;56038;46.080;11.116;2023-05-07T18:53:38;6.18;;;2.92;;
68987;SDS011;56038;46.080;11.116;2023-05-07T18:58:40;5.18;;;3.63;;
68987;SDS011;56038;46.080;11.116;2023-05-07T19:03:43;5.13;;;3.88;;
68987;SDS011;56038;46.080;11.116;2023-05-07T19:08:45;9.48;;;5.05;;
68987;SDS011;56038;46.080;11.116;2023-05-07T19:13:48;7.82;;;5.63;;
68987;SDS011;56038;46.080;11.116;2023-05-07T19:18:51;5.28;;;4.38;;
68987;SDS011;56038;46.080;11.116;2023-05-07T19:23:53;6.65;;;4.55;;
68987;SDS011;56038;46.080;11.116;2023-05-07T19:28:56;5.00;;;4.22;;
68987;SDS011;56038;46.080;11.116;2023-05-07T19:33:59;6.57;;;3.72;;
68987;SDS011;56038;46.080;11.116;2023-05-07T19:39:01;7.22;;;4.28;;
68987;SDS011;56038;46.080;11.116;2023-05-07T19:44:03;5.65;;;5.05;;
68987;SDS011;56038;46.080;11.116;2023-05-07T19:49:06;5.78;;;4.22;;
68987;SDS011;56038;46.080;11.116;2023-05-07T19:54:08;7.07;;;4.07;;
68987;SDS011;56038;46.080;11.116;2023-05-07T19:59:10;8.02;;;5.28;;
68987;SDS011;56038;46.080;11.116;2023-05-07T20:04:13;6.72;;;4.68;;
68987;SDS011;56038;46.080;11.116;2023-05-07T20:09:14;4.95;;;4.53;;
68987;SDS011;56038;46.080;11.116;2023-05-07T20:14:16;7.68;;;4.90;;
68987;SDS011;56038;46.080;11.116;2023-05-07T20:19:19;8.50;;;5.93;;
68987;SDS011;56038;46.080;11.116;2023-05-07T20:24:21;6.32;;;5.43;;
68987;SDS011;56038;46.080;11.116;2023-05-07T20:29:23;5.85;;;5.30;;
68987;SDS011;56038;46.080;11.116;2023-05-07T20:34:26;5.13;;;4.05;;
68987;SDS011;56038;46.080;11.116;2023-05-07T20:39:28;4.38;;;3.80;;
68987;SDS011;56038;46.080;11.116;2023-05-07T20:44:31;4.30;;;3.90;;
68987;SDS011;56038;46.080;11.116;2023-05-07T20:49:34;3.50;;;3.20;;
68987;SDS011;56038;46.080;11.116;2023-05-07T20:54:36;6.50;;;4.47;;
68987;SDS011;56038;46.080;11.116;2023-05-07T20:59:39;5.30;;;4.50;;
68987;SDS011;56038;46.080;11.116;2023-05-07T21:04:42;4.65;;;3.53;;
68987;SDS011;56038;46.080;11.116;2023-05-07T21:09:44;4.32;;;3.58;;
68987;SDS011;56038;46.080;11.116;2023-05-07T21:14:45;3.10;;;2.90;;
68987;SDS011;56038;46.080;11.116;2023-05-07T21:19:48;5.32;;;4.82;;
68987;SDS011;56038;46.080;11.116;2023-05-07T21:24:50;3.75;;;3.10;;
68987;SDS011;56038;46.080;11.116;2023-05-07T21:29:51;4.32;;;3.30;;
68987;SDS011;56038;46.080;11.116;2023-05-07T21:34:54;3.75;;;3.45;;
68987;SDS011;56038;46.080;11.116;2023-05-07T21:39:56;4.05;;;3.65;;
68987;SDS011;56038;46.080;11.116;2023-05-07T21:44:58;4.68;;;3.63;;
68987;SDS011;56038;46.080;11.116;2023-05-07T21:50:01;3.97;;;3.55;;
68987;SDS011;56038;46.080;11.116;2023-05-07T21:55:03;3.15;;;2.92;;
68987;SDS011;56038;46.080;11.116;2023-05-07T22:00:06;4.85;;;4.25;;
68987;SDS011;56038;46.080;11.116;2023-05-07T22:05:10;5.63;;;4.82;;
68987;SDS011;56038;46.080;11.116;2023-05-07T22:10:29;5.60;;;4.95;;
68987;SDS011;56038;46.080;11.116;2023-05-07T22:15:31;4.38;;;3.97;;
68987;SDS011;56038;46.080;11.116;2023-05-07T22:20:34;5.05;;;4.55;;
68987;SDS011;56038;46.080;11.116;2023-05-07T22:25:36;4.75;;;4.25;;
68987;SDS011;56038;46.080;11.116;2023-05-07T22:30:37;5.28;;;4.15;;
68987;SDS011;56038;46.080;11.116;2023-05-07T22:35:40;4.75;;;4.25;;
68987;SDS011;56038;46.080;11.116;2023-05-07T22:40:42;5.80;;;4.55;;
68987;SDS011;56038;46.080;11.116;2023-05-07T22:45:44;6.13;;;4.95;;
68987;SDS011;56038;46.080;11.116;2023-05-07T22:50:47;5.05;;;4.55;;
68987;SDS011;56038;46.080;11.116;2023-05-07T22:55:48;5.95;;;5.28;;
68987;SDS011;56038;46.080;11.116;2023-05-07T23:00:50;5.82;;;4.95;;
68987;SDS011;56038;46.080;11.116;2023-05-07T23:05:58;7.15;;;5.25;;
68987;SDS011;56038;46.080;11.116;2023-05-07T23:11:08;7.35;;;5.78;;
68987;SDS011;56038;46.080;11.116;2023-05-07T23:16:10;6.20;;;5.50;;
68987;SDS011;56038;46.080;11.116;2023-05-07T23:21:13;8.77;;;4.80;;
68987;SDS011;56038;46.080;11.116;2023-05-07T23:26:15;5.72;;;4.95;;
68987;SDS011;56038;46.080;11.116;2023-05-07T23:31:17;5.15;;;4.55;;
68987;SDS011;56038;46.080;11.116;2023-05-07T23:36:20;4.88;;;4.30;;
68987;SDS011;56038;46.080;11.116;2023-05-07T23:41:21;6.00;;;3.88;;
68987;SDS011;56038;46.080;11.116;2023-05-07T23:46:23;5.03;;;3.92;;
68987;SDS011;56038;46.080;11.116;2023-05-07T23:51:27;5.43;;;4.00;;
68987;SDS011;56038;46.080;11.116;2023-05-07T23:56:28;4.45;;;4.05;;
